Time;durP1;ratioP1;P1;durP2;ratioP2;P2;SDS_P1;SDS_P2;PMS_P1;PMS_P2;Temp;Humidity;BMP_temperature;BMP_pressure;BME280_temperature;BME280_humidity;BME280_pressure;Samples;Min_cycle;Max_cycle;Signal;HPM_P1;HPM_P2
2022/01/17 00:00:16;;;;;;;6.77;3.93;;;5.90;99.90;;;;;;4998343;28;20676;-76
2022/01/17 00:02:43;;;;;;;5.50;3.70;;;5.90;99.90;;;;;;5014912;28;20192;-78
2022/01/17 00:05:09;;;;;;;8.10;4.10;;;6.10;99.90;;;;;;5031916;28;20201;-78
2022/01/17 00:07:36;;;;;;;7.17;4.63;;;6.00;99.90;;;;;;5015401;28;20186;-78
2022/01/17 00:10:04;;;;;;;5.90;4.00;;;6.10;99.90;;;;;;5015575;28;20178;-74
2022/01/17 00:12:33;;;;;;;8.27;3.80;;;5.90;99.90;;;;;;4998597;28;20273;-78
2022/01/17 00:14:59;;;;;;;6.10;3.67;;;5.90;99.90;;;;;;5015138;28;20205;-75
2022/01/17 00:17:32;;;;;;;4.87;3.33;;;6.00;99.90;;;;;;5032392;28;20275;-78
2022/01/17 00:20:08;;;;;;;6.77;3.97;;;6.00;99.90;;;;;;5000560;28;20272;-74
2022/01/17 00:22:34;;;;;;;7.50;3.87;;;6.30;99.90;;;;;;5017085;28;20391;-75
2022/01/17 00:24:59;;;;;;;8.53;3.67;;;6.30;99.90;;;;;;5015331;28;20231;-78
2022/01/17 00:27:25;;;;;;;7.13;3.90;;;6.50;99.90;;;;;;5015513;28;20197;-78
2022/01/17 00:29:51;;;;;;;6.00;3.63;;;6.60;99.90;;;;;;5014412;28;20170;-78
2022/01/17 00:32:18;;;;;;;6.07;3.90;;;6.50;99.90;;;;;;5015434;28;20182;-78
2022/01/17 00:34:46;;;;;;;6.87;4.00;;;6.50;99.90;;;;;;5015038;28;20182;-74
2022/01/17 00:37:12;;;;;;;5.23;3.63;;;6.20;99.90;;;;;;5031888;28;20194;-75
2022/01/17 00:39:38;;;;;;;4.20;3.33;;;6.10;99.90;;;;;;5027532;28;20234;-78
2022/01/17 00:42:04;;;;;;;5.83;3.73;;;6.30;99.90;;;;;;5051349;28;20177;-74
2022/01/17 00:44:29;;;;;;;5.30;3.77;;;6.40;99.90;;;;;;5034926;28;20184;-74
2022/01/17 00:46:55;;;;;;;5.27;3.40;;;6.40;99.90;;;;;;5052617;28;20260;-75
2022/01/17 00:49:21;;;;;;;4.17;3.40;;;6.40;99.90;;;;;;5034925;28;20323;-79
2022/01/17 00:51:48;;;;;;;4.53;3.50;;;6.40;99.90;;;;;;5017624;28;20264;-74
2022/01/17 00:54:14;;;;;;;5.53;3.73;;;6.40;99.90;;;;;;5035175;28;20209;-75
2022/01/17 00:56:40;;;;;;;5.43;3.97;;;6.10;99.90;;;;;;5040927;28;20192;-74
2022/01/17 00:59:06;;;;;;;6.87;4.33;;;6.10;99.90;;;;;;5030928;28;20170;-75
2022/01/17 01:01:32;;;;;;;6.10;3.87;;;6.20;99.90;;;;;;5014531;28;20578;-75
2022/01/17 01:03:57;;;;;;;6.77;4.07;;;6.30;99.90;;;;;;5031215;28;20249;-74
2022/01/17 01:06:23;;;;;;;6.07;4.33;;;6.30;99.90;;;;;;5030998;28;20274;-75
2022/01/17 01:08:49;;;;;;;8.03;4.33;;;6.20;99.90;;;;;;5014504;28;20197;-75
2022/01/17 01:11:15;;;;;;;7.40;4.23;;;6.30;99.90;;;;;;5014294;28;20186;-75
2022/01/17 01:13:41;;;;;;;7.23;4.90;;;6.30;99.90;;;;;;5030907;28;20174;-75
2022/01/17 01:16:23;;;;;;;9.33;5.30;;;6.20;99.90;;;;;;5031070;28;20205;-79
2022/01/17 01:29:27;;;;;;;10.07;5.63;;;5.80;99.90;;;;;;5017054;28;20177;-75
2022/01/17 01:32:00;;;;;;;10.67;6.10;;;6.00;99.90;;;;;;4998294;28;20184;-77
2022/01/17 01:34:40;;;;;;;10.60;6.67;;;6.20;99.90;;;;;;4998138;28;20182;-78
2022/01/17 01:37:06;;;;;;;10.90;6.63;;;6.10;99.90;;;;;;5016049;28;20288;-77
2022/01/17 01:39:34;;;;;;;11.23;6.60;;;6.10;99.90;;;;;;5043210;28;20260;-79
2022/01/17 01:42:00;;;;;;;9.33;5.90;;;6.10;99.90;;;;;;5050504;28;20174;-77
2022/01/17 01:44:27;;;;;;;11.33;7.10;;;6.10;99.90;;;;;;5034286;28;20173;-75
2022/01/17 01:46:55;;;;;;;11.30;6.57;;;6.00;99.90;;;;;;5050375;28;20169;-78
2022/01/17 01:49:22;;;;;;;9.87;6.20;;;6.10;99.90;;;;;;5050597;28;20199;-79
2022/01/17 01:51:49;;;;;;;10.20;5.87;;;6.00;99.90;;;;;;5033022;28;20177;-75
2022/01/17 01:54:16;;;;;;;9.57;6.50;;;6.00;99.90;;;;;;5050084;28;20693;-80
2022/01/17 01:56:48;;;;;;;11.30;6.47;;;6.00;99.90;;;;;;5038960;28;20196;-75
2022/01/17 01:59:16;;;;;;;11.73;6.07;;;6.00;99.90;;;;;;5069061;28;20583;-77
2022/01/17 02:01:42;;;;;;;11.33;6.90;;;6.10;99.90;;;;;;5069176;28;20290;-75
2022/01/17 02:04:08;;;;;;;12.77;6.40;;;5.90;99.90;;;;;;5069029;28;20686;-77
2022/01/17 02:06:34;;;;;;;9.07;5.83;;;6.10;99.90;;;;;;5053214;28;20180;-77
2022/01/17 02:09:04;;;;;;;9.30;5.37;;;6.10;99.90;;;;;;5053471;28;20183;-77
2022/01/17 02:11:33;;;;;;;14.47;6.33;;;6.30;99.90;;;;;;5069138;28;20671;-79
2022/01/17 02:14:00;;;;;;;10.60;6.20;;;6.20;99.90;;;;;;5070992;28;20173;-78
2022/01/17 02:16:27;;;;;;;9.00;5.23;;;6.30;99.90;;;;;;5052857;28;20647;-78
2022/01/17 02:18:53;;;;;;;9.23;5.13;;;6.20;99.90;;;;;;5052941;28;20212;-78
2022/01/17 02:21:32;;;;;;;9.87;5.40;;;6.20;99.90;;;;;;5070008;28;20172;-78
2022/01/17 02:23:58;;;;;;;6.97;5.07;;;6.10;99.90;;;;;;5069529;28;20179;-75
2022/01/17 02:26:25;;;;;;;9.50;6.07;;;6.00;99.90;;;;;;5069605;28;20721;-78
2022/01/17 02:28:53;;;;;;;7.33;5.17;;;6.00;99.90;;;;;;5053151;28;20183;-77
2022/01/17 02:31:21;;;;;;;8.40;5.10;;;6.10;99.90;;;;;;5020852;28;20192;-77
2022/01/17 02:33:49;;;;;;;9.57;5.57;;;5.90;99.90;;;;;;5049642;28;20184;-77
2022/01/17 02:36:15;;;;;;;9.13;5.57;;;5.90;99.90;;;;;;5016538;28;20211;-73
2022/01/17 02:38:41;;;;;;;11.40;6.03;;;5.80;99.90;;;;;;5049163;28;20201;-77
2022/01/17 02:41:07;;;;;;;8.73;5.20;;;6.00;99.90;;;;;;5032992;28;20177;-78
2022/01/17 02:43:35;;;;;;;8.00;5.20;;;6.00;99.90;;;;;;5051464;28;20173;-78
2022/01/17 02:48:32;;;;;;;7.27;4.77;;;6.10;99.90;;;;;;5031719;28;20645;-75
2022/01/17 02:50:59;;;;;;;8.57;5.30;;;6.20;99.90;;;;;;5029707;28;20178;-75
2022/01/17 02:53:26;;;;;;;7.83;4.90;;;6.30;99.90;;;;;;4998014;28;20235;-77
2022/01/17 02:56:01;;;;;;;10.87;5.60;;;6.10;99.90;;;;;;5034837;28;20276;-80
2022/01/17 02:58:28;;;;;;;9.53;5.20;;;5.90;99.90;;;;;;5000374;28;20296;-79
2022/01/17 03:00:57;;;;;;;9.67;5.03;;;5.90;99.90;;;;;;5016925;28;20186;-78
2022/01/17 03:03:30;;;;;;;9.40;5.37;;;6.00;99.90;;;;;;5044949;28;20181;-75
2022/01/17 03:05:58;;;;;;;8.33;5.27;;;6.10;99.90;;;;;;5036707;28;20177;-78
2022/01/17 03:08:27;;;;;;;7.83;5.57;;;6.10;99.90;;;;;;5053155;28;20667;-74
2022/01/17 03:10:55;;;;;;;7.77;4.47;;;6.10;99.90;;;;;;5004137;28;20675;-74
2022/01/17 03:13:29;;;;;;;8.13;4.63;;;6.20;99.90;;;;;;5053365;28;20181;-75
2022/01/17 03:15:59;;;;;;;13.00;5.27;;;6.30;99.90;;;;;;5054274;28;20193;-73
2022/01/17 03:18:28;;;;;;;11.43;5.67;;;6.20;99.90;;;;;;5019946;28;20232;-76
2022/01/17 03:20:54;;;;;;;8.10;4.80;;;6.40;99.90;;;;;;5003975;28;20177;-73
2022/01/17 03:23:19;;;;;;;8.23;5.17;;;6.30;99.90;;;;;;5017531;28;20593;-74
2022/01/17 03:25:45;;;;;;;11.70;6.07;;;6.30;99.90;;;;;;5027879;28;20181;-76
2022/01/17 03:28:11;;;;;;;11.13;6.33;;;6.30;99.90;;;;;;5025171;28;20182;-77
2022/01/17 03:30:38;;;;;;;10.30;6.23;;;6.20;99.90;;;;;;5000012;28;20185;-74
2022/01/17 03:33:07;;;;;;;10.13;5.80;;;6.20;99.90;;;;;;5032662;28;20758;-76
2022/01/17 03:35:33;;;;;;;8.93;5.07;;;6.00;99.90;;;;;;5032485;28;20180;-75
2022/01/17 03:37:59;;;;;;;10.30;5.60;;;6.10;99.90;;;;;;5032587;28;20308;-76
2022/01/17 03:40:26;;;;;;;10.57;6.07;;;6.00;99.90;;;;;;5034995;28;20184;-75
2022/01/17 03:42:52;;;;;;;9.50;4.80;;;5.90;99.90;;;;;;5035249;28;20217;-78
2022/01/17 03:45:18;;;;;;;9.37;5.40;;;6.00;99.90;;;;;;5022894;28;20632;-77
2022/01/17 03:47:47;;;;;;;9.63;5.70;;;6.20;99.90;;;;;;5005508;28;20177;-77
2022/01/17 03:50:16;;;;;;;9.97;6.27;;;6.20;99.90;;;;;;5036094;28;20193;-76
2022/01/17 03:52:42;;;;;;;11.13;6.30;;;6.20;99.90;;;;;;5053751;28;20617;-77
2022/01/17 03:55:14;;;;;;;10.37;5.93;;;6.20;99.90;;;;;;5052035;28;20534;-78
2022/01/17 03:57:43;;;;;;;9.70;6.20;;;5.90;99.90;;;;;;5034526;28;20636;-75
2022/01/17 04:00:13;;;;;;;8.40;5.83;;;5.60;99.90;;;;;;5035426;28;20169;-77
2022/01/17 04:02:40;;;;;;;10.40;6.33;;;5.40;99.90;;;;;;5034494;28;20181;-76
2022/01/17 04:05:07;;;;;;;9.93;6.43;;;5.30;99.90;;;;;;5051525;28;20169;-78
2022/01/17 04:07:33;;;;;;;12.73;6.77;;;5.60;99.90;;;;;;5035193;28;20181;-78
2022/01/17 04:09:59;;;;;;;10.20;6.50;;;5.70;99.90;;;;;;5053730;28;20591;-75
2022/01/17 04:12:24;;;;;;;11.57;6.30;;;5.90;99.90;;;;;;5018524;28;20203;-76
2022/01/17 04:14:55;;;;;;;10.77;6.53;;;5.90;99.90;;;;;;5052178;28;20672;-75
2022/01/17 04:17:27;;;;;;;11.63;6.57;;;6.00;99.90;;;;;;5052084;28;20240;-79
2022/01/17 04:20:03;;;;;;;9.17;6.17;;;5.70;99.90;;;;;;5051903;28;20169;-75
2022/01/17 04:22:50;;;;;;;9.60;6.10;;;5.70;99.90;;;;;;5053060;28;20177;-77
2022/01/17 04:25:16;;;;;;;14.03;7.07;;;5.80;99.90;;;;;;5019866;28;20194;-78
2022/01/17 04:27:42;;;;;;;10.83;6.30;;;6.00;99.90;;;;;;5035373;28;20177;-77
2022/01/17 04:30:08;;;;;;;9.03;6.03;;;;;;;;;;5053247;28;20187;-77
2022/01/17 04:32:34;;;;;;;10.23;6.67;;;5.90;99.90;;;;;;5050998;28;20512;-75
2022/01/17 04:35:00;;;;;;;9.40;6.30;;;5.90;99.90;;;;;;5051235;28;20184;-77
2022/01/17 04:37:26;;;;;;;10.77;7.20;;;6.00;99.90;;;;;;5051249;28;20200;-76
2022/01/17 04:39:51;;;;;;;9.77;6.60;;;6.00;99.90;;;;;;5034918;28;20173;-78
2022/01/17 04:42:26;;;;;;;11.00;7.27;;;6.00;99.90;;;;;;5018646;28;20189;-78
2022/01/17 04:45:07;;;;;;;11.60;6.50;;;5.90;99.90;;;;;;5020026;28;20181;-74
2022/01/17 04:47:34;;;;;;;12.33;7.23;;;5.90;99.90;;;;;;5052782;28;20185;-77
2022/01/17 04:50:01;;;;;;;13.27;7.57;;;6.00;99.90;;;;;;5051329;28;20689;-75
2022/01/17 04:52:27;;;;;;;14.23;8.23;;;6.10;99.90;;;;;;5007330;28;20189;-76
2022/01/17 04:54:55;;;;;;;14.67;8.17;;;6.10;99.90;;;;;;5007791;28;20185;-78
2022/01/17 04:57:21;;;;;;;16.53;8.50;;;5.80;99.90;;;;;;5030925;28;20216;-78
2022/01/17 04:59:48;;;;;;;15.37;8.97;;;5.80;99.90;;;;;;5047867;28;20257;-78
2022/01/17 05:02:15;;;;;;;13.43;8.57;;;5.80;99.90;;;;;;5030870;28;20193;-75
2022/01/17 05:04:41;;;;;;;13.53;8.07;;;5.90;99.90;;;;;;5030743;28;20257;-74
2022/01/17 05:07:07;;;;;;;16.17;8.90;;;5.90;99.90;;;;;;5030743;28;20268;-75
2022/01/17 05:09:33;;;;;;;13.03;8.47;;;5.90;99.90;;;;;;4998170;28;20178;-78
2022/01/17 05:11:59;;;;;;;15.43;9.20;;;6.00;99.90;;;;;;5014553;28;20181;-78
2022/01/17 05:14:26;;;;;;;14.57;9.13;;;6.00;99.90;;;;;;5014078;28;20189;-75
2022/01/17 05:17:00;;;;;;;14.60;8.47;;;6.00;99.90;;;;;;5046595;28;20178;-75
2022/01/17 05:22:10;;;;;;;14.47;7.73;;;5.80;99.90;;;;;;5030512;28;20182;-77
2022/01/17 05:24:35;;;;;;;13.17;7.43;;;5.90;99.90;;;;;;5032062;28;20682;-77
2022/01/17 05:27:02;;;;;;;11.33;7.37;;;5.90;99.90;;;;;;5030755;28;20813;-77
2022/01/17 05:29:27;;;;;;;11.97;7.13;;;5.90;99.90;;;;;;5030488;28;20224;-78
2022/01/17 05:31:53;;;;;;;13.73;8.57;;;6.00;99.90;;;;;;5022951;28;20640;-78
2022/01/17 05:34:19;;;;;;;15.30;8.57;;;6.10;99.90;;;;;;5033786;28;20166;-77
2022/01/17 05:36:45;;;;;;;14.07;8.57;;;6.20;99.90;;;;;;5050179;28;20684;-74
2022/01/17 05:39:10;;;;;;;16.60;9.60;;;6.20;99.90;;;;;;5033511;28;20639;-76
2022/01/17 05:41:36;;;;;;;15.33;8.13;;;6.20;99.90;;;;;;5051640;28;20194;-75
2022/01/17 05:44:02;;;;;;;14.17;8.23;;;6.10;99.90;;;;;;5033530;28;20184;-78
2022/01/17 05:46:28;;;;;;;18.33;8.83;;;6.10;99.90;;;;;;5033216;28;20193;-78
2022/01/17 05:48:54;;;;;;;10.93;6.80;;;6.10;99.90;;;;;;5033534;28;20216;-78
2022/01/17 05:51:19;;;;;;;11.10;6.07;;;6.20;99.90;;;;;;5016475;28;20181;-76
2022/01/17 05:53:45;;;;;;;8.53;5.23;;;6.10;99.90;;;;;;5033330;28;20629;-74
2022/01/17 05:56:11;;;;;;;6.07;4.70;;;6.20;99.90;;;;;;5029730;28;20702;-78
2022/01/17 05:58:37;;;;;;;8.10;4.73;;;6.30;99.90;;;;;;5031909;28;20219;-74
2022/01/17 06:01:05;;;;;;;7.30;4.40;;;6.30;99.90;;;;;;5069052;28;20156;-74
2022/01/17 06:03:32;;;;;;;8.27;4.77;;;6.30;99.90;;;;;;5068585;28;20242;-75
2022/01/17 06:05:58;;;;;;;7.23;4.30;;;6.10;99.90;;;;;;5051907;28;20267;-75
2022/01/17 06:08:24;;;;;;;7.40;4.47;;;6.10;99.90;;;;;;5069314;28;20590;-75
2022/01/17 06:10:51;;;;;;;9.57;4.13;;;6.20;99.90;;;;;;5052820;28;20176;-74
2022/01/17 06:13:16;;;;;;;5.10;3.67;;;6.30;99.90;;;;;;5052450;28;20176;-78
2022/01/17 06:15:42;;;;;;;5.57;3.90;;;6.20;99.90;;;;;;5069367;28;20276;-75
2022/01/17 06:18:08;;;;;;;7.10;3.80;;;6.40;99.90;;;;;;5025319;28;20205;-77
2022/01/17 06:20:34;;;;;;;8.33;4.47;;;6.50;99.90;;;;;;5021546;28;20185;-75
2022/01/17 06:22:59;;;;;;;6.90;3.70;;;6.40;99.90;;;;;;5016453;28;20173;-78
2022/01/17 06:25:25;;;;;;;5.30;3.40;;;6.20;99.90;;;;;;5049126;28;20165;-75
2022/01/17 06:27:51;;;;;;;5.07;3.77;;;6.30;99.90;;;;;;5048202;28;20204;-78
2022/01/17 06:30:17;;;;;;;5.43;3.30;;;6.50;99.90;;;;;;5048641;28;20240;-75
2022/01/17 06:32:43;;;;;;;4.20;2.90;;;6.40;99.90;;;;;;5047507;28;20181;-75
2022/01/17 06:35:09;;;;;;;6.57;3.87;;;6.50;99.90;;;;;;5049183;28;20203;-74
2022/01/17 06:37:38;;;;;;;5.93;3.17;;;6.50;99.90;;;;;;5043824;28;20271;-74
2022/01/17 06:40:06;;;;;;;5.43;3.73;;;6.60;99.90;;;;;;5037133;28;20178;-76
2022/01/17 06:42:33;;;;;;;5.63;3.53;;;6.60;99.90;;;;;;5009953;28;20629;-75
2022/01/17 06:44:59;;;;;;;5.30;3.50;;;6.60;99.90;;;;;;5026999;28;20228;-78
2022/01/17 06:47:25;;;;;;;5.07;3.23;;;6.60;99.90;;;;;;5011539;28;20178;-75
2022/01/17 06:49:51;;;;;;;4.57;3.20;;;6.50;99.90;;;;;;5039059;28;20178;-75
2022/01/17 06:52:17;;;;;;;12.93;7.63;;;6.40;99.90;;;;;;5010422;28;20241;-76
2022/01/17 06:54:43;;;;;;;3.73;2.83;;;6.30;99.90;;;;;;5027675;28;20173;-77
2022/01/17 06:57:08;;;;;;;5.50;3.10;;;6.40;99.90;;;;;;5020065;28;20215;-76
2022/01/17 06:59:34;;;;;;;4.93;3.30;;;6.40;99.90;;;;;;5031498;28;20169;-74
2022/01/17 07:02:00;;;;;;;4.53;2.80;;;6.20;99.90;;;;;;5048938;28;20200;-75
2022/01/17 07:04:26;;;;;;;4.37;3.10;;;6.20;99.90;;;;;;5025790;28;21703;-75
2022/01/17 07:06:51;;;;;;;3.73;3.07;;;6.00;99.90;;;;;;5003758;28;20260;-75
2022/01/17 07:09:19;;;;;;;4.03;3.00;;;6.10;99.90;;;;;;5030601;28;20162;-74
2022/01/17 07:11:45;;;;;;;5.47;3.30;;;6.10;99.90;;;;;;5017237;28;20731;-73
2022/01/17 07:14:11;;;;;;;5.00;3.63;;;6.40;99.90;;;;;;5033166;28;20177;-77
2022/01/17 07:16:39;;;;;;;8.70;3.17;;;6.50;99.90;;;;;;5011733;28;20225;-76
2022/01/17 07:19:06;;;;;;;4.83;3.03;;;6.60;99.90;;;;;;5031398;28;20559;-75
2022/01/17 07:21:32;;;;;;;4.63;2.97;;;6.40;99.90;;;;;;5028417;28;20186;-75
2022/01/17 07:23:59;;;;;;;5.77;3.60;;;6.50;99.90;;;;;;5030177;28;20173;-78
2022/01/17 07:26:25;;;;;;;8.53;3.37;;;6.80;99.90;;;;;;5028177;28;20269;-77
2022/01/17 07:28:51;;;;;;;6.07;3.13;;;6.50;99.90;;;;;;5030272;28;20285;-80
2022/01/17 07:31:17;;;;;;;4.90;3.47;;;6.50;99.90;;;;;;5027528;28;20178;-78
2022/01/17 07:33:43;;;;;;;3.37;2.80;;;6.20;99.90;;;;;;5030980;28;20235;-78
2022/01/17 07:36:09;;;;;;;5.20;3.20;;;6.40;99.90;;;;;;5030586;28;20177;-79
2022/01/17 07:38:35;;;;;;;4.43;3.23;;;6.20;99.90;;;;;;5036758;28;20210;-79
2022/01/17 07:41:04;;;;;;;6.97;3.27;;;6.40;99.90;;;;;;5035024;28;20209;-75
2022/01/17 07:43:30;;;;;;;6.50;3.53;;;6.30;99.90;;;;;;5034303;28;20525;-74
2022/01/17 07:46:17;;;;;;;8.00;3.53;;;6.50;99.90;;;;;;5045132;28;20255;-75
2022/01/17 07:48:59;;;;;;;4.73;3.37;;;6.60;99.90;;;;;;5006917;28;20649;-74
2022/01/17 07:51:26;;;;;;;4.10;2.80;;;6.70;99.90;;;;;;5033373;28;20196;-80
2022/01/17 07:53:53;;;;;;;3.70;2.80;;;6.80;99.90;;;;;;5036660;28;20189;-75
2022/01/17 07:56:19;;;;;;;3.57;2.70;;;6.60;99.90;;;;;;5030858;28;20180;-74
2022/01/17 07:58:45;;;;;;;6.87;3.07;;;6.60;99.90;;;;;;5035968;28;20206;-75
2022/01/17 08:01:12;;;;;;;9.57;2.80;;;6.60;99.90;;;;;;5025712;28;20661;-79
2022/01/17 08:03:38;;;;;;;5.13;2.97;;;6.80;99.90;;;;;;5031698;28;20206;-75
2022/01/17 08:06:05;;;;;;;3.63;2.90;;;6.80;99.90;;;;;;5014032;28;20229;-78
2022/01/17 08:08:31;;;;;;;4.97;3.03;;;6.90;99.90;;;;;;5033528;28;20178;-74
2022/01/17 08:10:57;;;;;;;4.47;2.87;;;6.90;99.90;;;;;;5000422;28;20192;-79
2022/01/17 08:13:23;;;;;;;3.83;2.83;;;7.00;99.90;;;;;;5030434;28;20719;-78
2022/01/17 08:15:48;;;;;;;3.77;2.60;;;7.00;99.90;;;;;;5032331;28;20210;-75
2022/01/17 08:18:15;;;;;;;5.50;3.10;;;6.90;99.90;;;;;;5036159;28;20212;-79
2022/01/17 08:20:42;;;;;;;4.80;2.83;;;7.00;99.90;;;;;;5041662;28;20272;-75
2022/01/17 08:23:09;;;;;;;4.23;3.20;;;7.00;99.90;;;;;;5033323;28;20265;-76
2022/01/17 08:25:36;;;;;;;3.13;2.40;;;7.00;99.90;;;;;;4998393;28;20239;-78
2022/01/17 08:28:02;;;;;;;3.57;2.70;;;7.10;99.90;;;;;;5014468;28;20172;-75
2022/01/17 08:30:28;;;;;;;3.73;2.37;;;6.90;99.90;;;;;;5032799;28;20197;-80
2022/01/17 08:32:55;;;;;;;6.07;2.90;;;6.90;99.90;;;;;;5033770;28;20695;-78
2022/01/17 08:35:21;;;;;;;4.53;2.50;;;6.90;99.90;;;;;;5038388;28;20239;-74
2022/01/17 08:37:47;;;;;;;3.47;2.63;;;6.90;99.90;;;;;;5016814;28;20202;-79
2022/01/17 08:40:15;;;;;;;6.93;3.40;;;7.00;99.90;;;;;;5029176;28;20199;-80
2022/01/17 08:42:41;;;;;;;5.37;2.60;;;6.60;99.90;;;;;;5032012;28;20180;-79
2022/01/17 08:45:11;;;;;;;6.07;2.70;;;6.80;99.90;;;;;;5020518;28;20173;-75
2022/01/17 08:47:37;;;;;;;4.30;2.60;;;6.80;99.90;;;;;;5031397;28;20232;-80
2022/01/17 08:50:05;;;;;;;5.13;3.00;;;6.80;99.90;;;;;;5017460;28;20191;-75
2022/01/17 08:52:31;;;;;;;5.17;3.60;;;7.00;99.90;;;;;;5040289;28;20174;-80
2022/01/17 08:54:57;;;;;;;7.23;2.90;;;6.90;99.90;;;;;;5037657;28;20193;-78
2022/01/17 08:57:24;;;;;;;4.63;3.33;;;7.10;99.90;;;;;;5030503;28;20284;-76
2022/01/17 08:59:51;;;;;;;6.73;3.20;;;7.10;99.90;;;;;;5024954;28;20818;-78
2022/01/17 09:02:17;;;;;;;4.33;2.60;;;6.80;99.90;;;;;;5031711;28;20182;-79
2022/01/17 09:04:43;;;;;;;4.63;2.77;;;7.00;99.90;;;;;;5036806;28;20174;-79
2022/01/17 09:07:11;;;;;;;3.30;2.20;;;7.30;99.90;;;;;;5026279;28;20177;-75
2022/01/17 09:09:38;;;;;;;3.77;2.23;;;7.10;99.90;;;;;;5037543;28;20182;-75
2022/01/17 09:12:06;;;;;;;3.87;2.70;;;7.20;99.90;;;;;;5014160;28;20174;-80
2022/01/17 09:14:33;;;;;;;5.27;2.63;;;7.10;99.90;;;;;;5013800;28;20178;-74
2022/01/17 09:17:02;;;;;;;4.50;2.90;;;7.20;99.90;;;;;;5014932;28;20646;-80
2022/01/17 09:19:28;;;;;;;4.27;2.93;;;7.00;99.90;;;;;;5034240;28;20266;-80
2022/01/17 09:21:54;;;;;;;5.53;2.80;;;6.90;99.90;;;;;;5030629;28;20215;-80
2022/01/17 09:24:20;;;;;;;5.77;3.43;;;7.10;99.90;;;;;;5002850;28;20281;-79
2022/01/17 09:26:46;;;;;;;4.10;2.40;;;7.00;99.90;;;;;;5032853;28;20192;-81
2022/01/17 09:29:12;;;;;;;4.23;2.63;;;7.30;99.90;;;;;;5030330;28;20181;-79
2022/01/17 09:31:38;;;;;;;5.23;2.83;;;7.50;99.90;;;;;;5037920;28;20177;-74
2022/01/17 09:34:05;;;;;;;4.60;2.83;;;7.60;99.90;;;;;;5050360;28;21013;-79
2022/01/17 09:36:33;;;;;;;4.70;3.23;;;7.60;99.90;;;;;;5050144;28;20173;-78
2022/01/17 09:39:03;;;;;;;3.80;2.23;;;7.70;99.90;;;;;;5017878;28;20565;-74
2022/01/17 09:41:31;;;;;;;6.00;2.67;;;7.80;99.90;;;;;;5034505;28;20177;-74
2022/01/17 09:43:58;;;;;;;5.03;2.60;;;7.80;99.90;;;;;;5051675;28;20698;-78
2022/01/17 09:46:27;;;;;;;2.80;2.17;;;7.90;99.90;;;;;;5050834;28;20647;-78
2022/01/17 09:49:01;;;;;;;4.17;2.10;;;7.80;99.90;;;;;;5033702;28;20729;-73
2022/01/17 09:51:51;;;;;;;4.17;2.67;;;7.80;99.90;;;;;;5036582;28;20177;-80
2022/01/17 09:54:20;;;;;;;7.80;4.97;;;7.90;99.90;;;;;;5050094;28;20564;-78
2022/01/17 09:56:50;;;;;;;10.67;5.17;;;7.80;99.90;;;;;;5051047;28;20189;-78
2022/01/17 09:59:16;;;;;;;3.47;2.40;;;7.80;99.90;;;;;;5061495;28;20238;-74
2022/01/17 10:01:43;;;;;;;5.13;1.90;;;8.00;99.90;;;;;;5052018;28;20177;-78
2022/01/17 10:04:09;;;;;;;1.93;1.57;;;8.00;99.90;;;;;;5052927;28;20169;-79
2022/01/17 10:06:37;;;;;;;3.13;1.90;;;7.90;99.90;;;;;;5070575;28;20536;-77
2022/01/17 10:09:13;;;;;;;2.50;1.70;;;8.10;99.90;;;;;;5053160;28;20204;-78
2022/01/17 10:12:06;;;;;;;2.00;1.80;;;8.10;99.90;;;;;;5053430;28;20179;-74
2022/01/17 10:14:58;;;;;;;2.67;2.00;;;8.00;99.90;;;;;;5037351;28;20217;-79
2022/01/17 10:17:41;;;;;;;1.53;1.43;;;8.00;99.90;;;;;;5075484;28;20208;-79
2022/01/17 10:20:09;;;;;;;2.97;1.90;;;8.20;99.90;;;;;;5034528;28;20573;-80
2022/01/17 10:22:46;;;;;;;2.63;1.40;;;8.30;99.90;;;;;;5033817;28;20193;-73
2022/01/17 10:28:46;;;;;;;4.47;2.10;;;8.40;99.90;;;;;;5039738;28;20185;-74
2022/01/17 10:36:52;;;;;;;1.97;1.50;;;8.10;99.90;;;;;;5036176;28;20185;-79
2022/01/17 10:39:22;;;;;;;1.40;1.00;;;8.10;99.90;;;;;;5034407;28;20224;-73
2022/01/17 10:41:48;;;;;;;1.73;1.20;;;8.30;99.90;;;;;;5034169;28;20264;-78
2022/01/17 10:44:35;;;;;;;1.70;1.10;;;8.40;99.90;;;;;;5035327;28;20184;-73
2022/01/17 10:47:30;;;;;;;2.57;1.47;;;8.50;99.90;;;;;;5052250;28;20192;-74
2022/01/17 10:50:00;;;;;;;2.23;1.27;;;8.10;99.90;;;;;;5035632;28;20252;-77
2022/01/17 10:52:36;;;;;;;0.90;0.80;;;8.20;99.90;;;;;;5008080;28;20641;-77
2022/01/17 10:55:09;;;;;;;1.50;1.00;;;8.30;99.90;;;;;;5016177;28;20173;-78
2022/01/17 10:57:39;;;;;;;1.93;1.47;;;8.10;99.90;;;;;;5032034;28;20240;-74
2022/01/17 11:00:12;;;;;;;4.00;2.50;;;8.10;99.90;;;;;;5032846;28;20162;-75
2022/01/17 11:02:40;;;;;;;2.63;2.00;;;7.90;99.90;;;;;;5042056;28;20238;-77
2022/01/17 11:05:10;;;;;;;6.40;2.20;;;7.80;99.90;;;;;;5033950;28;20201;-79
2022/01/17 11:07:43;;;;;;;4.10;2.30;;;7.70;99.90;;;;;;5051811;28;20688;-79
2022/01/17 11:10:29;;;;;;;3.77;2.07;;;7.60;99.90;;;;;;5053652;28;20261;-75
2022/01/17 11:12:58;;;;;;;2.20;1.97;;;7.80;99.90;;;;;;5037162;28;20200;-77
2022/01/17 11:15:26;;;;;;;3.00;2.10;;;7.90;99.90;;;;;;5025598;28;20197;-78
2022/01/17 11:17:56;;;;;;;2.93;2.13;;;7.80;99.90;;;;;;5036556;28;20213;-76
2022/01/17 11:20:26;;;;;;;4.20;2.83;;;7.60;99.90;;;;;;5056148;28;20223;-75
2022/01/17 11:22:58;;;;;;;5.33;2.90;;;7.90;99.90;;;;;;5038691;28;20578;-74
2022/01/17 11:25:30;;;;;;;5.37;2.60;;;7.80;99.90;;;;;;5054321;28;20268;-74
2022/01/17 11:28:05;;;;;;;3.70;2.80;;;7.80;99.90;;;;;;5056479;28;20256;-75
2022/01/17 11:30:37;;;;;;;4.17;3.20;;;7.70;99.90;;;;;;5055181;28;20177;-78
2022/01/17 11:33:07;;;;;;;3.90;3.07;;;7.70;99.90;;;;;;5019998;28;20184;-78
2022/01/17 11:35:34;;;;;;;4.30;3.13;;;7.70;99.90;;;;;;5053897;28;20521;-75
2022/01/17 11:38:02;;;;;;;4.27;2.73;;;7.30;99.90;;;;;;5036553;28;20263;-73
2022/01/17 11:40:30;;;;;;;4.50;2.90;;;7.20;99.90;;;;;;5035969;28;20173;-76
2022/01/17 11:42:59;;;;;;;4.57;3.20;;;7.20;99.90;;;;;;5053528;28;20660;-78
2022/01/17 11:45:24;;;;;;;5.07;3.10;;;7.10;99.90;;;;;;5053288;28;20192;-73
2022/01/17 11:47:50;;;;;;;5.17;3.37;;;7.40;99.90;;;;;;5036221;28;20181;-78
2022/01/17 11:50:29;;;;;;;4.97;3.20;;;7.20;99.90;;;;;;5036718;28;20173;-77
2022/01/17 11:52:56;;;;;;;4.60;2.97;;;7.40;99.90;;;;;;5035266;28;20195;-72
2022/01/17 11:55:43;;;;;;;5.03;3.07;;;7.50;99.90;;;;;;5053786;28;20621;-77
2022/01/17 11:58:38;;;;;;;2.97;2.13;;;7.50;99.90;;;;;;5055655;28;20204;-74
2022/01/17 12:01:04;;;;;;;5.50;2.67;;;7.60;99.90;;;;;;5074606;28;20149;-74
2022/01/17 12:03:41;;;;;;;3.67;2.47;;;7.60;99.90;;;;;;5054091;28;20722;-79
2022/01/17 12:06:37;;;;;;;2.70;2.10;;;7.40;99.90;;;;;;5054808;28;20219;-78
2022/01/17 12:09:23;;;;;;;4.90;3.00;;;7.40;99.90;;;;;;5073238;28;20214;-74
2022/01/17 12:12:02;;;;;;;6.90;4.53;;;7.70;99.90;;;;;;5070777;28;20630;-79
2022/01/17 12:14:34;;;;;;;11.57;9.13;;;7.70;99.90;;;;;;5072505;28;20402;-77
2022/01/17 12:17:18;;;;;;;6.07;4.47;;;7.60;99.90;;;;;;5066352;28;20181;-79
2022/01/17 12:20:22;;;;;;;2.97;2.40;;;7.70;99.90;;;;;;5043528;28;20505;-73
2022/01/17 12:22:57;;;;;;;3.30;2.00;;;7.70;99.90;;;;;;5014513;28;20181;-78
2022/01/17 12:25:30;;;;;;;2.83;2.00;;;7.50;99.90;;;;;;5039064;28;20193;-73
2022/01/17 12:28:08;;;;;;;2.07;1.87;;;7.70;99.90;;;;;;5043841;28;20182;-77
2022/01/17 12:30:57;;;;;;;2.53;1.97;;;7.80;99.90;;;;;;5030471;28;20170;-77
2022/01/17 12:33:37;;;;;;;2.10;1.90;;;7.90;99.90;;;;;;5039211;28;20545;-76
2022/01/17 12:36:24;;;;;;;2.03;1.73;;;8.00;99.90;;;;;;5006299;28;20207;-77
2022/01/17 12:38:51;;;;;;;3.10;2.37;;;7.90;99.90;;;;;;5036850;28;20231;-74
2022/01/17 12:41:37;;;;;;;2.10;1.90;;;7.70;99.90;;;;;;5021166;28;20202;-75
2022/01/17 12:44:45;;;;;;;2.30;1.93;;;7.70;99.90;;;;;;5045841;28;20251;-74
2022/01/17 12:47:15;;;;;;;3.57;2.00;;;7.50;99.90;;;;;;5035899;28;20269;-76
2022/01/17 12:49:41;;;;;;;2.73;2.30;;;7.70;99.90;;;;;;5016473;28;20208;-76
2022/01/17 12:52:11;;;;;;;3.20;2.10;;;7.60;99.90;;;;;;5037494;28;20197;-78
2022/01/17 12:54:36;;;;;;;2.03;1.80;;;7.60;99.90;;;;;;5012206;28;20542;-74
2022/01/17 12:57:03;;;;;;;2.63;1.93;;;7.60;99.90;;;;;;5031807;28;20186;-72
2022/01/17 12:59:28;;;;;;;3.10;2.33;;;7.50;99.90;;;;;;5018070;28;20182;-78
2022/01/17 13:01:59;;;;;;;2.60;1.80;;;7.50;99.90;;;;;;5034900;28;20177;-79
2022/01/17 13:04:31;;;;;;;3.17;2.23;;;7.50;99.90;;;;;;5040062;28;20173;-79
2022/01/17 13:07:02;;;;;;;3.37;1.83;;;7.50;99.90;;;;;;5042089;28;20169;-79
2022/01/17 13:09:36;;;;;;;3.50;1.83;;;7.80;99.90;;;;;;5029688;28;20181;-72
2022/01/17 13:12:07;;;;;;;2.43;1.97;;;8.00;99.90;;;;;;5016274;28;20177;-74
2022/01/17 13:14:32;;;;;;;2.87;2.00;;;8.00;99.90;;;;;;4998856;28;20240;-73
2022/01/17 13:16:58;;;;;;;2.87;2.00;;;8.10;99.90;;;;;;5014345;28;20178;-73
2022/01/17 13:19:25;;;;;;;2.53;1.80;;;8.10;99.90;;;;;;5031535;28;20901;-78
2022/01/17 13:21:51;;;;;;;4.50;2.13;;;7.90;99.90;;;;;;5034934;28;20186;-78
2022/01/17 13:27:00;;;;;;;4.07;2.10;;;7.90;99.90;;;;;;5031971;28;20301;-78
2022/01/17 13:29:26;;;;;;;4.57;1.90;;;7.70;99.90;;;;;;5034967;28;20178;-83
2022/01/17 13:31:53;;;;;;;2.70;1.87;;;7.70;99.90;;;;;;5040410;28;20179;-77